sensor_id;sensor_type;location;lat;lon;timestamp;P1;durP1;ratioP1;P2;durP2;ratioP2
72611;SDS011;60655;52.182;4.474;2024-03-07T00:00:11;48.88;;;17.42;;
72611;SDS011;60655;52.182;4.474;2024-03-07T00:04:18;42.28;;;16.20;;
72611;SDS011;60655;52.182;4.474;2024-03-07T00:06:19;53.10;;;18.52;;
72611;SDS011;60655;52.182;4.474;2024-03-07T00:08:21;45.17;;;16.83;;
72611;SDS011;60655;52.182;4.474;2024-03-07T00:10:22;49.33;;;19.15;;
72611;SDS011;60655;52.182;4.474;2024-03-07T00:12:23;46.00;;;17.45;;
72611;SDS011;60655;52.182;4.474;2024-03-07T00:14:24;44.47;;;18.13;;
72611;SDS011;60655;52.182;4.474;2024-03-07T00:16:28;51.95;;;18.48;;
72611;SDS011;60655;52.182;4.474;2024-03-07T00:18:29;47.78;;;18.73;;
72611;SDS011;60655;52.182;4.474;2024-03-07T00:20:30;49.22;;;18.02;;
72611;SDS011;60655;52.182;4.474;2024-03-07T00:22:31;50.47;;;18.20;;
72611;SDS011;60655;52.182;4.474;2024-03-07T00:24:32;52.60;;;19.10;;
72611;SDS011;60655;52.182;4.474;2024-03-07T00:26:33;52.97;;;18.73;;
72611;SDS011;60655;52.182;4.474;2024-03-07T00:28:34;45.78;;;17.85;;
72611;SDS011;60655;52.182;4.474;2024-03-07T00:30:39;49.53;;;18.50;;
72611;SDS011;60655;52.182;4.474;2024-03-07T00:32:40;47.80;;;18.58;;
72611;SDS011;60655;52.182;4.474;2024-03-07T00:34:41;50.45;;;19.88;;
72611;SDS011;60655;52.182;4.474;2024-03-07T00:36:43;49.88;;;18.70;;
72611;SDS011;60655;52.182;4.474;2024-03-07T00:40:44;44.13;;;16.77;;
72611;SDS011;60655;52.182;4.474;2024-03-07T00:42:45;47.30;;;18.60;;
72611;SDS011;60655;52.182;4.474;2024-03-07T00:46:47;46.97;;;16.70;;
72611;SDS011;60655;52.182;4.474;2024-03-07T00:48:48;46.83;;;18.00;;
72611;SDS011;60655;52.182;4.474;2024-03-07T00:50:49;44.80;;;17.23;;
72611;SDS011;60655;52.182;4.474;2024-03-07T00:52:50;49.95;;;18.25;;
72611;SDS011;60655;52.182;4.474;2024-03-07T00:54:51;44.42;;;18.70;;
72611;SDS011;60655;52.182;4.474;2024-03-07T00:56:52;50.78;;;19.23;;
72611;SDS011;60655;52.182;4.474;2024-03-07T00:58:53;53.83;;;18.67;;
72611;SDS011;60655;52.182;4.474;2024-03-07T01:00:54;53.08;;;19.08;;
72611;SDS011;60655;52.182;4.474;2024-03-07T01:02:56;52.08;;;19.65;;
72611;SDS011;60655;52.182;4.474;2024-03-07T01:04:57;50.22;;;18.58;;
72611;SDS011;60655;52.182;4.474;2024-03-07T01:07:00;53.83;;;19.55;;
72611;SDS011;60655;52.182;4.474;2024-03-07T01:09:01;53.47;;;20.05;;
72611;SDS011;60655;52.182;4.474;2024-03-07T01:11:03;49.63;;;18.15;;
72611;SDS011;60655;52.182;4.474;2024-03-07T01:13:09;47.40;;;17.65;;
72611;SDS011;60655;52.182;4.474;2024-03-07T01:15:19;55.13;;;19.70;;
72611;SDS011;60655;52.182;4.474;2024-03-07T01:17:20;55.35;;;18.92;;
72611;SDS011;60655;52.182;4.474;2024-03-07T01:19:21;48.50;;;18.83;;
72611;SDS011;60655;52.182;4.474;2024-03-07T01:23:24;46.67;;;16.98;;
72611;SDS011;60655;52.182;4.474;2024-03-07T01:25:25;49.17;;;17.33;;
72611;SDS011;60655;52.182;4.474;2024-03-07T01:27:26;53.17;;;19.10;;
72611;SDS011;60655;52.182;4.474;2024-03-07T01:29:27;50.17;;;19.33;;
72611;SDS011;60655;52.182;4.474;2024-03-07T01:31:28;53.13;;;19.40;;
72611;SDS011;60655;52.182;4.474;2024-03-07T01:33:29;48.47;;;19.27;;
72611;SDS011;60655;52.182;4.474;2024-03-07T01:35:30;57.95;;;20.92;;
72611;SDS011;60655;52.182;4.474;2024-03-07T01:37:31;47.38;;;17.92;;
72611;SDS011;60655;52.182;4.474;2024-03-07T01:39:32;52.33;;;19.75;;
72611;SDS011;60655;52.182;4.474;2024-03-07T01:41:33;50.42;;;20.15;;
72611;SDS011;60655;52.182;4.474;2024-03-07T01:43:35;53.20;;;19.02;;
72611;SDS011;60655;52.182;4.474;2024-03-07T01:45:36;55.10;;;19.85;;
72611;SDS011;60655;52.182;4.474;2024-03-07T01:47:38;53.00;;;20.20;;
72611;SDS011;60655;52.182;4.474;2024-03-07T01:49:39;52.30;;;19.23;;
72611;SDS011;60655;52.182;4.474;2024-03-07T01:51:40;54.33;;;19.55;;
72611;SDS011;60655;52.182;4.474;2024-03-07T01:53:41;56.65;;;19.27;;
72611;SDS011;60655;52.182;4.474;2024-03-07T01:55:42;58.97;;;21.27;;
72611;SDS011;60655;52.182;4.474;2024-03-07T01:57:44;53.30;;;19.33;;
72611;SDS011;60655;52.182;4.474;2024-03-07T01:59:46;51.72;;;19.40;;
72611;SDS011;60655;52.182;4.474;2024-03-07T02:01:48;54.05;;;20.10;;
72611;SDS011;60655;52.182;4.474;2024-03-07T02:03:50;47.08;;;18.45;;
72611;SDS011;60655;52.182;4.474;2024-03-07T02:05:51;53.72;;;20.02;;
72611;SDS011;60655;52.182;4.474;2024-03-07T02:07:52;57.72;;;20.00;;
72611;SDS011;60655;52.182;4.474;2024-03-07T02:10:02;53.42;;;19.92;;
72611;SDS011;60655;52.182;4.474;2024-03-07T02:12:07;54.33;;;19.10;;
72611;SDS011;60655;52.182;4.474;2024-03-07T02:14:09;57.42;;;19.88;;
72611;SDS011;60655;52.182;4.474;2024-03-07T02:16:10;55.58;;;20.27;;
72611;SDS011;60655;52.182;4.474;2024-03-07T02:18:11;54.45;;;18.83;;
72611;SDS011;60655;52.182;4.474;2024-03-07T02:20:13;58.00;;;20.25;;
72611;SDS011;60655;52.182;4.474;2024-03-07T02:22:14;53.55;;;20.00;;
72611;SDS011;60655;52.182;4.474;2024-03-07T02:24:14;54.15;;;20.73;;
72611;SDS011;60655;52.182;4.474;2024-03-07T02:26:16;63.45;;;19.95;;
72611;SDS011;60655;52.182;4.474;2024-03-07T02:28:17;53.10;;;19.48;;
72611;SDS011;60655;52.182;4.474;2024-03-07T02:30:18;53.33;;;20.10;;
72611;SDS011;60655;52.182;4.474;2024-03-07T02:34:20;49.47;;;17.15;;
72611;SDS011;60655;52.182;4.474;2024-03-07T02:36:21;54.10;;;19.17;;
72611;SDS011;60655;52.182;4.474;2024-03-07T02:38:22;51.47;;;19.77;;
72611;SDS011;60655;52.182;4.474;2024-03-07T02:40:23;53.83;;;19.30;;
72611;SDS011;60655;52.182;4.474;2024-03-07T02:42:24;60.28;;;20.45;;
72611;SDS011;60655;52.182;4.474;2024-03-07T02:46:25;62.15;;;19.48;;
72611;SDS011;60655;52.182;4.474;2024-03-07T02:50:27;52.90;;;18.83;;
72611;SDS011;60655;52.182;4.474;2024-03-07T02:52:28;49.72;;;18.33;;
72611;SDS011;60655;52.182;4.474;2024-03-07T02:54:30;55.10;;;19.90;;
72611;SDS011;60655;52.182;4.474;2024-03-07T02:56:33;62.70;;;20.55;;
72611;SDS011;60655;52.182;4.474;2024-03-07T03:00:35;54.08;;;18.08;;
72611;SDS011;60655;52.182;4.474;2024-03-07T03:02:36;55.53;;;20.75;;
72611;SDS011;60655;52.182;4.474;2024-03-07T03:04:37;52.80;;;20.83;;
72611;SDS011;60655;52.182;4.474;2024-03-07T03:06:38;57.30;;;19.83;;
72611;SDS011;60655;52.182;4.474;2024-03-07T03:08:39;63.47;;;20.58;;
72611;SDS011;60655;52.182;4.474;2024-03-07T03:10:40;56.33;;;20.20;;
72611;SDS011;60655;52.182;4.474;2024-03-07T03:12:41;52.35;;;19.40;;
72611;SDS011;60655;52.182;4.474;2024-03-07T03:14:43;53.55;;;21.05;;
72611;SDS011;60655;52.182;4.474;2024-03-07T03:16:44;53.38;;;19.20;;
72611;SDS011;60655;52.182;4.474;2024-03-07T03:18:45;55.25;;;19.63;;
72611;SDS011;60655;52.182;4.474;2024-03-07T03:20:46;49.75;;;19.42;;
72611;SDS011;60655;52.182;4.474;2024-03-07T03:22:48;59.83;;;21.17;;
72611;SDS011;60655;52.182;4.474;2024-03-07T03:24:50;60.70;;;21.08;;
72611;SDS011;60655;52.182;4.474;2024-03-07T03:26:51;57.50;;;20.35;;
72611;SDS011;60655;52.182;4.474;2024-03-07T03:28:53;53.20;;;19.05;;
72611;SDS011;60655;52.182;4.474;2024-03-07T03:30:54;61.70;;;20.27;;
72611;SDS011;60655;52.182;4.474;2024-03-07T03:32:55;52.65;;;19.38;;
72611;SDS011;60655;52.182;4.474;2024-03-07T03:34:56;60.13;;;20.98;;
72611;SDS011;60655;52.182;4.474;2024-03-07T03:38:58;45.65;;;17.17;;
72611;SDS011;60655;52.182;4.474;2024-03-07T03:40:59;54.58;;;19.73;;
72611;SDS011;60655;52.182;4.474;2024-03-07T03:43:00;54.90;;;19.58;;
72611;SDS011;60655;52.182;4.474;2024-03-07T03:45:01;57.05;;;20.35;;
72611;SDS011;60655;52.182;4.474;2024-03-07T03:47:06;56.08;;;18.05;;
72611;SDS011;60655;52.182;4.474;2024-03-07T03:49:07;54.70;;;19.33;;
72611;SDS011;60655;52.182;4.474;2024-03-07T03:51:08;62.50;;;21.50;;
72611;SDS011;60655;52.182;4.474;2024-03-07T03:55:10;49.42;;;17.73;;
72611;SDS011;60655;52.182;4.474;2024-03-07T03:57:15;56.63;;;19.13;;
72611;SDS011;60655;52.182;4.474;2024-03-07T03:59:18;57.97;;;19.67;;
72611;SDS011;60655;52.182;4.474;2024-03-07T04:01:19;53.10;;;20.33;;
72611;SDS011;60655;52.182;4.474;2024-03-07T04:03:20;55.67;;;19.83;;
72611;SDS011;60655;52.182;4.474;2024-03-07T04:05:21;56.90;;;19.60;;
72611;SDS011;60655;52.182;4.474;2024-03-07T04:07:22;58.38;;;21.55;;
72611;SDS011;60655;52.182;4.474;2024-03-07T04:09:24;63.53;;;22.13;;
72611;SDS011;60655;52.182;4.474;2024-03-07T04:11:26;59.65;;;21.33;;
72611;SDS011;60655;52.182;4.474;2024-03-07T04:13:27;56.40;;;21.35;;
72611;SDS011;60655;52.182;4.474;2024-03-07T04:15:28;54.47;;;20.90;;
72611;SDS011;60655;52.182;4.474;2024-03-07T04:17:32;58.00;;;21.75;;
72611;SDS011;60655;52.182;4.474;2024-03-07T04:19:35;57.83;;;20.38;;
72611;SDS011;60655;52.182;4.474;2024-03-07T04:21:36;57.63;;;20.77;;
72611;SDS011;60655;52.182;4.474;2024-03-07T04:23:39;61.05;;;21.95;;
72611;SDS011;60655;52.182;4.474;2024-03-07T04:25:40;63.47;;;22.30;;
72611;SDS011;60655;52.182;4.474;2024-03-07T04:27:41;67.10;;;21.60;;
72611;SDS011;60655;52.182;4.474;2024-03-07T04:29:42;60.05;;;21.52;;
72611;SDS011;60655;52.182;4.474;2024-03-07T04:31:43;58.58;;;21.50;;
72611;SDS011;60655;52.182;4.474;2024-03-07T04:33:44;66.75;;;22.42;;
72611;SDS011;60655;52.182;4.474;2024-03-07T04:35:46;57.90;;;21.83;;
72611;SDS011;60655;52.182;4.474;2024-03-07T04:37:47;63.58;;;22.27;;
72611;SDS011;60655;52.182;4.474;2024-03-07T04:39:48;61.25;;;22.63;;
72611;SDS011;60655;52.182;4.474;2024-03-07T04:41:49;59.45;;;21.40;;
72611;SDS011;60655;52.182;4.474;2024-03-07T04:43:51;59.03;;;20.60;;
72611;SDS011;60655;52.182;4.474;2024-03-07T04:45:52;63.20;;;21.40;;
72611;SDS011;60655;52.182;4.474;2024-03-07T04:47:53;59.80;;;20.00;;
72611;SDS011;60655;52.182;4.474;2024-03-07T04:49:55;61.28;;;21.65;;
72611;SDS011;60655;52.182;4.474;2024-03-07T04:51:57;54.90;;;20.52;;
72611;SDS011;60655;52.182;4.474;2024-03-07T04:54:00;57.40;;;20.73;;
72611;SDS011;60655;52.182;4.474;2024-03-07T04:56:01;59.00;;;22.27;;
72611;SDS011;60655;52.182;4.474;2024-03-07T04:58:02;56.50;;;22.20;;
72611;SDS011;60655;52.182;4.474;2024-03-07T05:00:04;53.90;;;20.35;;
72611;SDS011;60655;52.182;4.474;2024-03-07T05:02:08;59.28;;;22.75;;
72611;SDS011;60655;52.182;4.474;2024-03-07T05:04:09;59.05;;;20.60;;
72611;SDS011;60655;52.182;4.474;2024-03-07T05:06:12;57.05;;;21.42;;
72611;SDS011;60655;52.182;4.474;2024-03-07T05:08:13;53.78;;;19.30;;
72611;SDS011;60655;52.182;4.474;2024-03-07T05:10:14;58.30;;;21.27;;
72611;SDS011;60655;52.182;4.474;2024-03-07T05:12:15;53.72;;;20.40;;
72611;SDS011;60655;52.182;4.474;2024-03-07T05:14:16;56.90;;;20.95;;
72611;SDS011;60655;52.182;4.474;2024-03-07T05:16:17;60.65;;;21.20;;
72611;SDS011;60655;52.182;4.474;2024-03-07T05:18:18;55.20;;;20.58;;
72611;SDS011;60655;52.182;4.474;2024-03-07T05:20:19;55.67;;;21.42;;
72611;SDS011;60655;52.182;4.474;2024-03-07T05:22:20;54.60;;;20.08;;
72611;SDS011;60655;52.182;4.474;2024-03-07T05:24:25;57.00;;;20.38;;
72611;SDS011;60655;52.182;4.474;2024-03-07T05:26:26;54.50;;;19.38;;
72611;SDS011;60655;52.182;4.474;2024-03-07T05:28:28;60.35;;;21.95;;
72611;SDS011;60655;52.182;4.474;2024-03-07T05:30:28;50.20;;;19.98;;
72611;SDS011;60655;52.182;4.474;2024-03-07T05:32:29;52.97;;;20.02;;
72611;SDS011;60655;52.182;4.474;2024-03-07T05:34:31;52.60;;;20.67;;
72611;SDS011;60655;52.182;4.474;2024-03-07T05:36:36;51.38;;;18.85;;
72611;SDS011;60655;52.182;4.474;2024-03-07T05:38:56;58.85;;;20.45;;
72611;SDS011;60655;52.182;4.474;2024-03-07T05:40:57;54.22;;;19.45;;
72611;SDS011;60655;52.182;4.474;2024-03-07T05:45:00;48.28;;;18.92;;
72611;SDS011;60655;52.182;4.474;2024-03-07T05:47:00;51.00;;;18.85;;
72611;SDS011;60655;52.182;4.474;2024-03-07T05:49:02;58.10;;;21.38;;
72611;SDS011;60655;52.182;4.474;2024-03-07T05:51:03;48.83;;;19.73;;
72611;SDS011;60655;52.182;4.474;2024-03-07T05:55:08;57.17;;;18.88;;
72611;SDS011;60655;52.182;4.474;2024-03-07T05:57:09;55.28;;;19.77;;
72611;SDS011;60655;52.182;4.474;2024-03-07T05:59:10;56.95;;;19.88;;
72611;SDS011;60655;52.182;4.474;2024-03-07T06:01:11;52.33;;;19.33;;
72611;SDS011;60655;52.182;4.474;2024-03-07T06:03:12;53.78;;;19.77;;
72611;SDS011;60655;52.182;4.474;2024-03-07T06:05:16;44.28;;;17.48;;
72611;SDS011;60655;52.182;4.474;2024-03-07T06:07:19;55.17;;;19.83;;
72611;SDS011;60655;52.182;4.474;2024-03-07T06:09:21;53.53;;;20.27;;
72611;SDS011;60655;52.182;4.474;2024-03-07T06:11:22;54.00;;;20.08;;
72611;SDS011;60655;52.182;4.474;2024-03-07T06:13:23;54.80;;;19.80;;
72611;SDS011;60655;52.182;4.474;2024-03-07T06:15:24;47.53;;;19.63;;
72611;SDS011;60655;52.182;4.474;2024-03-07T06:17:25;52.75;;;20.30;;
72611;SDS011;60655;52.182;4.474;2024-03-07T06:19:27;53.22;;;20.70;;
72611;SDS011;60655;52.182;4.474;2024-03-07T06:21:28;52.00;;;19.85;;
72611;SDS011;60655;52.182;4.474;2024-03-07T06:23:32;55.47;;;19.70;;
72611;SDS011;60655;52.182;4.474;2024-03-07T06:25:33;51.58;;;19.80;;
72611;SDS011;60655;52.182;4.474;2024-03-07T06:27:37;50.65;;;18.88;;
72611;SDS011;60655;52.182;4.474;2024-03-07T06:29:48;53.17;;;19.60;;
72611;SDS011;60655;52.182;4.474;2024-03-07T06:31:51;47.38;;;18.35;;
72611;SDS011;60655;52.182;4.474;2024-03-07T06:33:54;53.22;;;20.05;;
72611;SDS011;60655;52.182;4.474;2024-03-07T06:35:55;50.22;;;18.85;;
72611;SDS011;60655;52.182;4.474;2024-03-07T06:37:56;51.85;;;19.75;;
72611;SDS011;60655;52.182;4.474;2024-03-07T06:39:57;52.83;;;20.23;;
72611;SDS011;60655;52.182;4.474;2024-03-07T06:41:58;58.30;;;21.85;;
72611;SDS011;60655;52.182;4.474;2024-03-07T06:43:59;56.67;;;20.45;;
72611;SDS011;60655;52.182;4.474;2024-03-07T06:46:01;54.80;;;19.98;;
72611;SDS011;60655;52.182;4.474;2024-03-07T06:48:02;56.38;;;20.33;;
72611;SDS011;60655;52.182;4.474;2024-03-07T06:50:10;53.28;;;19.10;;
72611;SDS011;60655;52.182;4.474;2024-03-07T06:52:14;55.85;;;19.88;;
72611;SDS011;60655;52.182;4.474;2024-03-07T06:54:16;53.63;;;20.38;;
72611;SDS011;60655;52.182;4.474;2024-03-07T06:56:17;56.10;;;21.00;;
72611;SDS011;60655;52.182;4.474;2024-03-07T06:58:18;52.05;;;19.80;;
72611;SDS011;60655;52.182;4.474;2024-03-07T07:00:20;58.38;;;20.55;;
72611;SDS011;60655;52.182;4.474;2024-03-07T07:02:21;51.67;;;20.77;;
72611;SDS011;60655;52.182;4.474;2024-03-07T07:04:22;48.40;;;19.75;;
72611;SDS011;60655;52.182;4.474;2024-03-07T07:06:25;53.03;;;20.13;;
72611;SDS011;60655;52.182;4.474;2024-03-07T07:08:26;57.03;;;20.38;;
72611;SDS011;60655;52.182;4.474;2024-03-07T07:10:30;59.05;;;21.15;;
72611;SDS011;60655;52.182;4.474;2024-03-07T07:12:34;57.53;;;21.38;;
72611;SDS011;60655;52.182;4.474;2024-03-07T07:14:37;63.40;;;20.90;;
72611;SDS011;60655;52.182;4.474;2024-03-07T07:16:39;52.15;;;19.85;;
72611;SDS011;60655;52.182;4.474;2024-03-07T07:18:46;53.83;;;20.40;;
72611;SDS011;60655;52.182;4.474;2024-03-07T07:20:46;48.80;;;20.85;;
72611;SDS011;60655;52.182;4.474;2024-03-07T07:22:48;52.10;;;21.13;;
72611;SDS011;60655;52.182;4.474;2024-03-07T07:24:50;53.00;;;19.90;;
72611;SDS011;60655;52.182;4.474;2024-03-07T07:26:51;55.92;;;20.17;;
72611;SDS011;60655;52.182;4.474;2024-03-07T07:28:52;53.88;;;21.00;;
72611;SDS011;60655;52.182;4.474;2024-03-07T07:30:54;56.78;;;20.23;;
72611;SDS011;60655;52.182;4.474;2024-03-07T07:32:55;57.67;;;20.10;;
72611;SDS011;60655;52.182;4.474;2024-03-07T07:34:56;54.97;;;20.73;;
72611;SDS011;60655;52.182;4.474;2024-03-07T07:36:57;49.42;;;20.85;;
72611;SDS011;60655;52.182;4.474;2024-03-07T07:38:58;57.65;;;20.85;;
72611;SDS011;60655;52.182;4.474;2024-03-07T07:41:00;52.40;;;20.05;;
72611;SDS011;60655;52.182;4.474;2024-03-07T07:43:01;53.33;;;20.25;;
72611;SDS011;60655;52.182;4.474;2024-03-07T07:45:10;53.10;;;19.85;;
72611;SDS011;60655;52.182;4.474;2024-03-07T07:47:11;49.38;;;19.48;;
72611;SDS011;60655;52.182;4.474;2024-03-07T07:49:12;51.67;;;21.45;;
72611;SDS011;60655;52.182;4.474;2024-03-07T07:51:13;48.35;;;19.48;;
72611;SDS011;60655;52.182;4.474;2024-03-07T07:53:14;50.03;;;19.50;;
72611;SDS011;60655;52.182;4.474;2024-03-07T07:55:16;53.90;;;20.02;;
72611;SDS011;60655;52.182;4.474;2024-03-07T07:57:17;52.03;;;20.55;;
72611;SDS011;60655;52.182;4.474;2024-03-07T07:59:18;49.50;;;19.95;;
72611;SDS011;60655;52.182;4.474;2024-03-07T08:01:19;46.83;;;17.85;;
72611;SDS011;60655;52.182;4.474;2024-03-07T08:03:20;44.17;;;18.45;;
72611;SDS011;60655;52.182;4.474;2024-03-07T08:05:32;55.50;;;20.40;;
72611;SDS011;60655;52.182;4.474;2024-03-07T08:07:36;51.28;;;20.17;;
72611;SDS011;60655;52.182;4.474;2024-03-07T08:09:37;47.47;;;19.38;;
72611;SDS011;60655;52.182;4.474;2024-03-07T08:11:40;47.67;;;19.17;;
72611;SDS011;60655;52.182;4.474;2024-03-07T08:13:42;49.13;;;18.23;;
72611;SDS011;60655;52.182;4.474;2024-03-07T08:15:43;46.45;;;18.85;;
72611;SDS011;60655;52.182;4.474;2024-03-07T08:17:44;52.63;;;18.70;;
72611;SDS011;60655;52.182;4.474;2024-03-07T08:19:47;44.85;;;17.55;;
72611;SDS011;60655;52.182;4.474;2024-03-07T08:21:49;44.38;;;18.67;;
72611;SDS011;60655;52.182;4.474;2024-03-07T08:23:50;43.45;;;18.33;;
72611;SDS011;60655;52.182;4.474;2024-03-07T08:25:51;44.38;;;18.35;;
72611;SDS011;60655;52.182;4.474;2024-03-07T08:27:52;44.28;;;17.27;;
72611;SDS011;60655;52.182;4.474;2024-03-07T08:29:54;47.67;;;18.60;;
72611;SDS011;60655;52.182;4.474;2024-03-07T08:33:56;40.72;;;15.93;;
72611;SDS011;60655;52.182;4.474;2024-03-07T08:35:57;41.28;;;17.42;;
72611;SDS011;60655;52.182;4.474;2024-03-07T08:39:59;42.20;;;16.40;;
72611;SDS011;60655;52.182;4.474;2024-03-07T08:42:00;37.80;;;16.73;;
72611;SDS011;60655;52.182;4.474;2024-03-07T08:46:03;39.30;;;16.52;;
72611;SDS011;60655;52.182;4.474;2024-03-07T08:50:05;37.72;;;14.75;;
72611;SDS011;60655;52.182;4.474;2024-03-07T08:52:09;38.03;;;15.77;;
72611;SDS011;60655;52.182;4.474;2024-03-07T08:56:10;37.67;;;15.63;;
72611;SDS011;60655;52.182;4.474;2024-03-07T08:58:11;38.95;;;15.88;;
72611;SDS011;60655;52.182;4.474;2024-03-07T09:02:23;37.45;;;15.05;;
72611;SDS011;60655;52.182;4.474;2024-03-07T09:04:26;37.85;;;16.20;;
72611;SDS011;60655;52.182;4.474;2024-03-07T09:08:28;33.30;;;14.40;;
72611;SDS011;60655;52.182;4.474;2024-03-07T09:12:32;38.33;;;14.30;;
72611;SDS011;60655;52.182;4.474;2024-03-07T09:16:34;31.42;;;13.45;;
72611;SDS011;60655;52.182;4.474;2024-03-07T09:18:35;30.20;;;13.20;;
72611;SDS011;60655;52.182;4.474;2024-03-07T09:22:38;29.33;;;12.45;;
72611;SDS011;60655;52.182;4.474;2024-03-07T09:24:39;29.67;;;12.68;;
72611;SDS011;60655;52.182;4.474;2024-03-07T09:28:41;32.17;;;13.20;;
72611;SDS011;60655;52.182;4.474;2024-03-07T09:32:43;26.83;;;12.13;;
72611;SDS011;60655;52.182;4.474;2024-03-07T09:36:44;25.38;;;11.77;;
72611;SDS011;60655;52.182;4.474;2024-03-07T09:38:46;27.90;;;11.40;;
72611;SDS011;60655;52.182;4.474;2024-03-07T09:42:49;27.90;;;11.75;;
72611;SDS011;60655;52.182;4.474;2024-03-07T09:44:53;29.80;;;12.90;;
72611;SDS011;60655;52.182;4.474;2024-03-07T09:46:57;27.42;;;11.70;;
72611;SDS011;60655;52.182;4.474;2024-03-07T09:49:01;24.45;;;11.48;;
72611;SDS011;60655;52.182;4.474;2024-03-07T09:53:05;26.13;;;11.20;;
72611;SDS011;60655;52.182;4.474;2024-03-07T09:57:08;24.20;;;9.70;;
72611;SDS011;60655;52.182;4.474;2024-03-07T09:59:11;25.50;;;11.80;;
72611;SDS011;60655;52.182;4.474;2024-03-07T10:01:19;25.38;;;11.10;;
72611;SDS011;60655;52.182;4.474;2024-03-07T10:03:24;25.80;;;11.57;;
72611;SDS011;60655;52.182;4.474;2024-03-07T10:05:30;27.55;;;12.15;;
72611;SDS011;60655;52.182;4.474;2024-03-07T10:07:32;25.73;;;11.55;;
72611;SDS011;60655;52.182;4.474;2024-03-07T10:09:35;23.27;;;11.15;;
72611;SDS011;60655;52.182;4.474;2024-03-07T10:11:38;27.55;;;12.27;;
72611;SDS011;60655;52.182;4.474;2024-03-07T10:13:43;27.75;;;11.48;;
72611;SDS011;60655;52.182;4.474;2024-03-07T10:15:47;22.55;;;10.95;;
72611;SDS011;60655;52.182;4.474;2024-03-07T10:17:49;22.42;;;10.57;;
72611;SDS011;60655;52.182;4.474;2024-03-07T10:19:50;26.02;;;11.25;;
72611;SDS011;60655;52.182;4.474;2024-03-07T10:21:53;25.33;;;10.80;;
72611;SDS011;60655;52.182;4.474;2024-03-07T10:24:07;24.42;;;11.00;;
72611;SDS011;60655;52.182;4.474;2024-03-07T10:26:10;22.98;;;10.65;;
72611;SDS011;60655;52.182;4.474;2024-03-07T10:28:11;22.88;;;10.80;;
72611;SDS011;60655;52.182;4.474;2024-03-07T10:32:14;24.10;;;9.80;;
72611;SDS011;60655;52.182;4.474;2024-03-07T10:34:20;22.23;;;9.65;;
72611;SDS011;60655;52.182;4.474;2024-03-07T10:36:22;20.75;;;9.65;;
72611;SDS011;60655;52.182;4.474;2024-03-07T10:38:24;21.45;;;9.45;;
72611;SDS011;60655;52.182;4.474;2024-03-07T10:42:28;19.52;;;7.97;;
72611;SDS011;60655;52.182;4.474;2024-03-07T10:44:30;20.02;;;8.85;;
72611;SDS011;60655;52.182;4.474;2024-03-07T10:46:32;23.42;;;9.52;;
72611;SDS011;60655;52.182;4.474;2024-03-07T10:48:35;19.77;;;9.27;;
72611;SDS011;60655;52.182;4.474;2024-03-07T10:51:02;23.05;;;9.43;;
72611;SDS011;60655;52.182;4.474;2024-03-07T10:53:15;21.00;;;10.20;;
72611;SDS011;60655;52.182;4.474;2024-03-07T10:55:24;19.38;;;9.27;;
72611;SDS011;60655;52.182;4.474;2024-03-07T10:57:31;20.05;;;9.63;;
72611;SDS011;60655;52.182;4.474;2024-03-07T10:59:37;18.98;;;9.60;;
72611;SDS011;60655;52.182;4.474;2024-03-07T11:01:45;18.67;;;9.75;;
72611;SDS011;60655;52.182;4.474;2024-03-07T11:04:07;17.45;;;8.73;;
72611;SDS011;60655;52.182;4.474;2024-03-07T11:06:08;22.33;;;9.18;;
72611;SDS011;60655;52.182;4.474;2024-03-07T11:08:11;19.10;;;9.10;;
72611;SDS011;60655;52.182;4.474;2024-03-07T11:10:13;18.33;;;9.13;;
72611;SDS011;60655;52.182;4.474;2024-03-07T11:12:19;20.55;;;9.23;;
72611;SDS011;60655;52.182;4.474;2024-03-07T11:14:23;21.83;;;9.52;;
72611;SDS011;60655;52.182;4.474;2024-03-07T11:16:25;20.63;;;9.38;;
72611;SDS011;60655;52.182;4.474;2024-03-07T11:18:27;18.83;;;9.02;;
72611;SDS011;60655;52.182;4.474;2024-03-07T11:20:35;19.92;;;9.63;;
72611;SDS011;60655;52.182;4.474;2024-03-07T11:22:37;22.15;;;9.38;;
72611;SDS011;60655;52.182;4.474;2024-03-07T11:24:39;19.55;;;8.68;;
72611;SDS011;60655;52.182;4.474;2024-03-07T11:26:40;21.50;;;9.23;;
72611;SDS011;60655;52.182;4.474;2024-03-07T11:28:41;18.65;;;9.10;;
72611;SDS011;60655;52.182;4.474;2024-03-07T11:30:43;17.98;;;8.63;;
72611;SDS011;60655;52.182;4.474;2024-03-07T11:32:44;17.80;;;9.40;;
72611;SDS011;60655;52.182;4.474;2024-03-07T11:34:45;17.55;;;8.95;;
72611;SDS011;60655;52.182;4.474;2024-03-07T11:36:50;20.48;;;9.38;;
72611;SDS011;60655;52.182;4.474;2024-03-07T11:38:54;17.35;;;8.60;;
72611;SDS011;60655;52.182;4.474;2024-03-07T11:40:58;17.90;;;8.27;;
72611;SDS011;60655;52.182;4.474;2024-03-07T11:43:02;19.45;;;8.50;;
72611;SDS011;60655;52.182;4.474;2024-03-07T11:45:07;17.50;;;8.73;;
72611;SDS011;60655;52.182;4.474;2024-03-07T11:47:08;17.63;;;8.98;;
72611;SDS011;60655;52.182;4.474;2024-03-07T11:49:09;19.70;;;9.05;;
72611;SDS011;60655;52.182;4.474;2024-03-07T11:51:14;17.23;;;8.98;;
72611;SDS011;60655;52.182;4.474;2024-03-07T11:53:18;17.50;;;8.50;;
72611;SDS011;60655;52.182;4.474;2024-03-07T11:55:19;17.52;;;8.15;;
72611;SDS011;60655;52.182;4.474;2024-03-07T11:57:21;18.85;;;8.25;;
72611;SDS011;60655;52.182;4.474;2024-03-07T11:59:33;17.95;;;8.30;;
72611;SDS011;60655;52.182;4.474;2024-03-07T12:01:38;19.90;;;8.68;;
72611;SDS011;60655;52.182;4.474;2024-03-07T12:03:40;21.63;;;8.23;;
72611;SDS011;60655;52.182;4.474;2024-03-07T12:05:41;19.48;;;8.77;;
72611;SDS011;60655;52.182;4.474;2024-03-07T12:07:43;18.90;;;8.85;;
72611;SDS011;60655;52.182;4.474;2024-03-07T12:09:44;21.60;;;8.95;;
72611;SDS011;60655;52.182;4.474;2024-03-07T12:11:50;17.25;;;8.63;;
72611;SDS011;60655;52.182;4.474;2024-03-07T12:13:53;20.05;;;9.27;;
72611;SDS011;60655;52.182;4.474;2024-03-07T12:15:54;19.00;;;9.18;;
72611;SDS011;60655;52.182;4.474;2024-03-07T12:17:56;17.08;;;8.20;;
72611;SDS011;60655;52.182;4.474;2024-03-07T12:19:58;23.45;;;9.15;;
72611;SDS011;60655;52.182;4.474;2024-03-07T12:22:03;20.23;;;8.80;;
72611;SDS011;60655;52.182;4.474;2024-03-07T12:24:12;20.13;;;9.05;;
72611;SDS011;60655;52.182;4.474;2024-03-07T12:26:19;18.73;;;8.88;;
72611;SDS011;60655;52.182;4.474;2024-03-07T12:28:25;19.83;;;9.35;;
72611;SDS011;60655;52.182;4.474;2024-03-07T12:30:26;23.02;;;9.90;;
72611;SDS011;60655;52.182;4.474;2024-03-07T12:32:33;20.67;;;8.80;;
72611;SDS011;60655;52.182;4.474;2024-03-07T12:34:35;19.38;;;9.10;;
72611;SDS011;60655;52.182;4.474;2024-03-07T12:36:38;20.48;;;9.40;;
72611;SDS011;60655;52.182;4.474;2024-03-07T12:38:46;19.27;;;8.90;;
72611;SDS011;60655;52.182;4.474;2024-03-07T12:41:01;22.40;;;8.77;;
72611;SDS011;60655;52.182;4.474;2024-03-07T12:43:17;21.65;;;8.50;;
72611;SDS011;60655;52.182;4.474;2024-03-07T12:45:19;19.48;;;8.93;;
72611;SDS011;60655;52.182;4.474;2024-03-07T12:47:20;22.58;;;8.95;;
72611;SDS011;60655;52.182;4.474;2024-03-07T12:49:25;16.67;;;8.02;;
72611;SDS011;60655;52.182;4.474;2024-03-07T12:51:28;22.20;;;9.05;;
72611;SDS011;60655;52.182;4.474;2024-03-07T12:53:29;20.50;;;9.32;;
72611;SDS011;60655;52.182;4.474;2024-03-07T12:55:32;17.48;;;8.25;;
72611;SDS011;60655;52.182;4.474;2024-03-07T12:57:33;18.92;;;8.95;;